sensor_id;sensor_type;location;lat;lon;timestamp;P1;durP1;ratioP1;P2;durP2;ratioP2
63492;SDS011;49638;47.526;10.028;2022-12-18T00:00:47;7.53;;;2.85;;
63492;SDS011;49638;47.526;10.028;2022-12-18T00:03:47;7.22;;;2.70;;
63492;SDS011;49638;47.526;10.028;2022-12-18T00:06:48;11.43;;;3.47;;
63492;SDS011;49638;47.526;10.028;2022-12-18T00:09:49;9.65;;;3.30;;
63492;SDS011;49638;47.526;10.028;2022-12-18T00:12:49;8.63;;;3.28;;
63492;SDS011;49638;47.526;10.028;2022-12-18T00:15:49;10.63;;;3.38;;
63492;SDS011;49638;47.526;10.028;2022-12-18T00:18:50;10.05;;;3.08;;
63492;SDS011;49638;47.526;10.028;2022-12-18T00:21:52;7.82;;;3.58;;
63492;SDS011;49638;47.526;10.028;2022-12-18T00:24:52;6.65;;;2.63;;
63492;SDS011;49638;47.526;10.028;2022-12-18T00:27:53;18.92;;;8.10;;
63492;SDS011;49638;47.526;10.028;2022-12-18T00:34:02;11.23;;;3.58;;
63492;SDS011;49638;47.526;10.028;2022-12-18T00:37:03;5.05;;;2.38;;
63492;SDS011;49638;47.526;10.028;2022-12-18T00:40:03;8.23;;;2.60;;
63492;SDS011;49638;47.526;10.028;2022-12-18T00:43:04;6.15;;;2.25;;
63492;SDS011;49638;47.526;10.028;2022-12-18T00:46:04;5.40;;;2.20;;
63492;SDS011;49638;47.526;10.028;2022-12-18T00:49:05;5.15;;;1.80;;
63492;SDS011;49638;47.526;10.028;2022-12-18T00:52:06;5.05;;;2.50;;
63492;SDS011;49638;47.526;10.028;2022-12-18T00:55:06;9.13;;;2.45;;
63492;SDS011;49638;47.526;10.028;2022-12-18T00:58:08;6.97;;;2.17;;
63492;SDS011;49638;47.526;10.028;2022-12-18T01:01:09;5.53;;;2.08;;
63492;SDS011;49638;47.526;10.028;2022-12-18T01:04:09;35.78;;;12.32;;
63492;SDS011;49638;47.526;10.028;2022-12-18T01:07:10;26.50;;;9.07;;
63492;SDS011;49638;47.526;10.028;2022-12-18T01:10:11;7.90;;;2.83;;
63492;SDS011;49638;47.526;10.028;2022-12-18T01:13:12;2.63;;;1.58;;
63492;SDS011;49638;47.526;10.028;2022-12-18T01:16:12;2.75;;;1.50;;
63492;SDS011;49638;47.526;10.028;2022-12-18T01:19:14;5.57;;;1.42;;
63492;SDS011;49638;47.526;10.028;2022-12-18T01:22:14;4.60;;;1.30;;
63492;SDS011;49638;47.526;10.028;2022-12-18T01:25:15;5.60;;;1.70;;
63492;SDS011;49638;47.526;10.028;2022-12-18T01:28:15;6.72;;;1.83;;
63492;SDS011;49638;47.526;10.028;2022-12-18T01:31:29;4.65;;;1.77;;
63492;SDS011;49638;47.526;10.028;2022-12-18T01:34:31;3.03;;;1.50;;
63492;SDS011;49638;47.526;10.028;2022-12-18T01:37:31;2.40;;;1.40;;
63492;SDS011;49638;47.526;10.028;2022-12-18T01:40:32;3.65;;;1.30;;
63492;SDS011;49638;47.526;10.028;2022-12-18T01:43:52;2.65;;;1.27;;
63492;SDS011;49638;47.526;10.028;2022-12-18T01:46:59;2.40;;;1.20;;
63492;SDS011;49638;47.526;10.028;2022-12-18T01:50:01;6.88;;;1.80;;
63492;SDS011;49638;47.526;10.028;2022-12-18T01:53:21;10.60;;;4.20;;
63492;SDS011;49638;47.526;10.028;2022-12-18T01:56:23;17.20;;;7.70;;
63492;SDS011;49638;47.526;10.028;2022-12-18T01:59:23;6.25;;;2.65;;
63492;SDS011;49638;47.526;10.028;2022-12-18T02:02:24;4.03;;;1.95;;
63492;SDS011;49638;47.526;10.028;2022-12-18T02:09:24;1.75;;;1.23;;
63492;SDS011;49638;47.526;10.028;2022-12-18T02:18:45;4.63;;;1.40;;
63492;SDS011;49638;47.526;10.028;2022-12-18T02:21:57;2.72;;;1.30;;
63492;SDS011;49638;47.526;10.028;2022-12-18T02:28:25;2.55;;;1.17;;
63492;SDS011;49638;47.526;10.028;2022-12-18T02:31:31;7.30;;;2.63;;
63492;SDS011;49638;47.526;10.028;2022-12-18T02:34:37;24.52;;;7.53;;
63492;SDS011;49638;47.526;10.028;2022-12-18T02:37:39;17.65;;;5.68;;
63492;SDS011;49638;47.526;10.028;2022-12-18T02:40:42;37.33;;;9.88;;
63492;SDS011;49638;47.526;10.028;2022-12-18T02:43:49;22.48;;;8.02;;
63492;SDS011;49638;47.526;10.028;2022-12-18T02:46:56;9.70;;;2.63;;
63492;SDS011;49638;47.526;10.028;2022-12-18T02:56:42;5.85;;;1.88;;
63492;SDS011;49638;47.526;10.028;2022-12-18T03:00:12;26.65;;;4.28;;
63492;SDS011;49638;47.526;10.028;2022-12-18T03:03:15;11.05;;;2.42;;
63492;SDS011;49638;47.526;10.028;2022-12-18T03:09:40;4.35;;;1.40;;
63492;SDS011;49638;47.526;10.028;2022-12-18T03:12:46;2.55;;;1.30;;
63492;SDS011;49638;47.526;10.028;2022-12-18T03:15:53;4.00;;;1.98;;
63492;SDS011;49638;47.526;10.028;2022-12-18T03:19:07;4.93;;;1.45;;
63492;SDS011;49638;47.526;10.028;2022-12-18T03:22:11;3.47;;;1.25;;
63492;SDS011;49638;47.526;10.028;2022-12-18T03:25:13;5.07;;;1.23;;
63492;SDS011;49638;47.526;10.028;2022-12-18T03:31:20;5.93;;;1.17;;
63492;SDS011;49638;47.526;10.028;2022-12-18T03:34:24;4.78;;;1.67;;
63492;SDS011;49638;47.526;10.028;2022-12-18T03:37:29;4.25;;;2.20;;
63492;SDS011;49638;47.526;10.028;2022-12-18T03:40:34;3.25;;;1.90;;
63492;SDS011;49638;47.526;10.028;2022-12-18T03:43:50;2.03;;;1.13;;
63492;SDS011;49638;47.526;10.028;2022-12-18T03:47:05;2.78;;;1.63;;
63492;SDS011;49638;47.526;10.028;2022-12-18T03:50:14;2.50;;;1.25;;
63492;SDS011;49638;47.526;10.028;2022-12-18T03:53:37;2.15;;;1.25;;
63492;SDS011;49638;47.526;10.028;2022-12-18T03:56:49;5.55;;;1.30;;
63492;SDS011;49638;47.526;10.028;2022-12-18T03:59:59;5.20;;;1.38;;
63492;SDS011;49638;47.526;10.028;2022-12-18T04:03:02;7.50;;;1.30;;
63492;SDS011;49638;47.526;10.028;2022-12-18T04:06:04;1.58;;;0.70;;
63492;SDS011;49638;47.526;10.028;2022-12-18T04:09:05;1.40;;;0.90;;
63492;SDS011;49638;47.526;10.028;2022-12-18T04:12:06;1.48;;;0.88;;
63492;SDS011;49638;47.526;10.028;2022-12-18T04:15:09;1.75;;;0.68;;
63492;SDS011;49638;47.526;10.028;2022-12-18T04:18:10;0.90;;;0.70;;
63492;SDS011;49638;47.526;10.028;2022-12-18T04:21:10;3.45;;;0.90;;
63492;SDS011;49638;47.526;10.028;2022-12-18T04:24:10;4.35;;;1.20;;
63492;SDS011;49638;47.526;10.028;2022-12-18T04:27:11;2.70;;;1.10;;
63492;SDS011;49638;47.526;10.028;2022-12-18T04:30:11;2.15;;;1.08;;
63492;SDS011;49638;47.526;10.028;2022-12-18T04:33:12;4.68;;;1.38;;
63492;SDS011;49638;47.526;10.028;2022-12-18T04:36:13;3.70;;;1.65;;
63492;SDS011;49638;47.526;10.028;2022-12-18T04:39:13;3.63;;;1.13;;
63492;SDS011;49638;47.526;10.028;2022-12-18T04:42:14;3.25;;;1.55;;
63492;SDS011;49638;47.526;10.028;2022-12-18T04:45:14;6.03;;;1.60;;
63492;SDS011;49638;47.526;10.028;2022-12-18T04:48:15;3.00;;;1.58;;
63492;SDS011;49638;47.526;10.028;2022-12-18T04:51:15;4.80;;;2.17;;
63492;SDS011;49638;47.526;10.028;2022-12-18T04:54:15;4.03;;;2.38;;
63492;SDS011;49638;47.526;10.028;2022-12-18T04:57:16;3.35;;;1.67;;
63492;SDS011;49638;47.526;10.028;2022-12-18T05:00:18;1.83;;;1.23;;
63492;SDS011;49638;47.526;10.028;2022-12-18T05:03:18;1.70;;;1.00;;
63492;SDS011;49638;47.526;10.028;2022-12-18T05:06:18;1.67;;;0.80;;
63492;SDS011;49638;47.526;10.028;2022-12-18T05:09:19;1.45;;;0.77;;
63492;SDS011;49638;47.526;10.028;2022-12-18T05:12:19;4.18;;;0.88;;
63492;SDS011;49638;47.526;10.028;2022-12-18T05:15:19;1.20;;;0.90;;
63492;SDS011;49638;47.526;10.028;2022-12-18T05:18:20;2.42;;;1.13;;
63492;SDS011;49638;47.526;10.028;2022-12-18T05:21:21;1.63;;;1.08;;
63492;SDS011;49638;47.526;10.028;2022-12-18T05:24:21;1.80;;;0.75;;
63492;SDS011;49638;47.526;10.028;2022-12-18T05:27:21;3.45;;;1.25;;
63492;SDS011;49638;47.526;10.028;2022-12-18T05:30:22;2.70;;;1.02;;
63492;SDS011;49638;47.526;10.028;2022-12-18T05:33:23;3.25;;;1.10;;
63492;SDS011;49638;47.526;10.028;2022-12-18T05:36:24;3.20;;;1.20;;
63492;SDS011;49638;47.526;10.028;2022-12-18T05:39:25;2.30;;;1.02;;
63492;SDS011;49638;47.526;10.028;2022-12-18T05:42:25;3.70;;;0.85;;
63492;SDS011;49638;47.526;10.028;2022-12-18T05:45:25;2.03;;;0.90;;
63492;SDS011;49638;47.526;10.028;2022-12-18T05:48:25;3.42;;;0.93;;
63492;SDS011;49638;47.526;10.028;2022-12-18T05:51:26;3.58;;;1.10;;
63492;SDS011;49638;47.526;10.028;2022-12-18T05:54:27;3.95;;;1.00;;
63492;SDS011;49638;47.526;10.028;2022-12-18T05:57:28;3.40;;;1.27;;
63492;SDS011;49638;47.526;10.028;2022-12-18T06:00:28;2.42;;;1.10;;
63492;SDS011;49638;47.526;10.028;2022-12-18T06:03:29;3.20;;;1.33;;
63492;SDS011;49638;47.526;10.028;2022-12-18T06:06:29;1.70;;;0.93;;
63492;SDS011;49638;47.526;10.028;2022-12-18T06:09:29;2.20;;;0.82;;
63492;SDS011;49638;47.526;10.028;2022-12-18T06:12:29;1.90;;;1.10;;
63492;SDS011;49638;47.526;10.028;2022-12-18T06:15:30;5.82;;;0.82;;
63492;SDS011;49638;47.526;10.028;2022-12-18T06:18:31;2.25;;;1.02;;
63492;SDS011;49638;47.526;10.028;2022-12-18T06:21:32;2.13;;;0.90;;
63492;SDS011;49638;47.526;10.028;2022-12-18T06:24:33;2.40;;;0.90;;
63492;SDS011;49638;47.526;10.028;2022-12-18T06:27:33;1.40;;;0.90;;
63492;SDS011;49638;47.526;10.028;2022-12-18T06:30:34;2.08;;;1.00;;
63492;SDS011;49638;47.526;10.028;2022-12-18T06:33:34;2.28;;;0.70;;
63492;SDS011;49638;47.526;10.028;2022-12-18T06:36:35;4.07;;;1.40;;
63492;SDS011;49638;47.526;10.028;2022-12-18T06:39:35;4.53;;;0.85;;
63492;SDS011;49638;47.526;10.028;2022-12-18T06:42:36;5.18;;;1.50;;
63492;SDS011;49638;47.526;10.028;2022-12-18T06:45:36;3.63;;;1.70;;
63492;SDS011;49638;47.526;10.028;2022-12-18T06:48:37;2.63;;;1.15;;
63492;SDS011;49638;47.526;10.028;2022-12-18T06:51:37;4.88;;;1.42;;
63492;SDS011;49638;47.526;10.028;2022-12-18T06:54:37;4.10;;;1.40;;
63492;SDS011;49638;47.526;10.028;2022-12-18T06:57:38;2.83;;;1.00;;
63492;SDS011;49638;47.526;10.028;2022-12-18T07:00:38;2.35;;;1.10;;
63492;SDS011;49638;47.526;10.028;2022-12-18T07:03:39;2.92;;;0.95;;
63492;SDS011;49638;47.526;10.028;2022-12-18T07:06:40;2.38;;;1.20;;
63492;SDS011;49638;47.526;10.028;2022-12-18T07:09:41;5.50;;;1.05;;
63492;SDS011;49638;47.526;10.028;2022-12-18T07:12:41;1.52;;;1.00;;
63492;SDS011;49638;47.526;10.028;2022-12-18T07:15:42;2.25;;;1.30;;
63492;SDS011;49638;47.526;10.028;2022-12-18T07:18:43;1.38;;;0.82;;
63492;SDS011;49638;47.526;10.028;2022-12-18T07:21:44;2.65;;;1.27;;
63492;SDS011;49638;47.526;10.028;2022-12-18T07:24:44;3.10;;;1.20;;
63492;SDS011;49638;47.526;10.028;2022-12-18T07:27:44;3.17;;;1.50;;
63492;SDS011;49638;47.526;10.028;2022-12-18T07:30:44;2.20;;;1.27;;
63492;SDS011;49638;47.526;10.028;2022-12-18T07:33:45;3.67;;;1.10;;
63492;SDS011;49638;47.526;10.028;2022-12-18T07:36:46;5.32;;;1.77;;
63492;SDS011;49638;47.526;10.028;2022-12-18T07:39:46;7.20;;;2.55;;
63492;SDS011;49638;47.526;10.028;2022-12-18T07:42:46;3.58;;;1.77;;
63492;SDS011;49638;47.526;10.028;2022-12-18T07:45:48;4.70;;;2.08;;
63492;SDS011;49638;47.526;10.028;2022-12-18T07:48:50;5.18;;;2.80;;
63492;SDS011;49638;47.526;10.028;2022-12-18T07:51:50;6.32;;;2.20;;
63492;SDS011;49638;47.526;10.028;2022-12-18T07:54:50;4.15;;;1.67;;
63492;SDS011;49638;47.526;10.028;2022-12-18T07:57:51;1.88;;;1.42;;
63492;SDS011;49638;47.526;10.028;2022-12-18T08:00:51;6.22;;;1.70;;
63492;SDS011;49638;47.526;10.028;2022-12-18T08:03:52;3.80;;;1.55;;
63492;SDS011;49638;47.526;10.028;2022-12-18T08:06:52;5.68;;;3.30;;
63492;SDS011;49638;47.526;10.028;2022-12-18T08:09:52;5.95;;;1.52;;
63492;SDS011;49638;47.526;10.028;2022-12-18T08:12:53;4.18;;;1.90;;
63492;SDS011;49638;47.526;10.028;2022-12-18T08:16:00;2.45;;;1.15;;
63492;SDS011;49638;47.526;10.028;2022-12-18T08:19:03;3.05;;;1.05;;
63492;SDS011;49638;47.526;10.028;2022-12-18T08:22:04;4.03;;;0.77;;
63492;SDS011;49638;47.526;10.028;2022-12-18T08:25:04;1.35;;;0.90;;
63492;SDS011;49638;47.526;10.028;2022-12-18T08:28:05;1.15;;;0.60;;
63492;SDS011;49638;47.526;10.028;2022-12-18T08:31:05;0.85;;;0.60;;
63492;SDS011;49638;47.526;10.028;2022-12-18T08:34:07;3.55;;;1.20;;
63492;SDS011;49638;47.526;10.028;2022-12-18T08:37:07;3.05;;;1.70;;
63492;SDS011;49638;47.526;10.028;2022-12-18T08:40:08;3.92;;;2.00;;
63492;SDS011;49638;47.526;10.028;2022-12-18T08:43:09;1.95;;;1.60;;
63492;SDS011;49638;47.526;10.028;2022-12-18T08:46:32;2.92;;;1.50;;
63492;SDS011;49638;47.526;10.028;2022-12-18T08:49:35;3.92;;;1.67;;
63492;SDS011;49638;47.526;10.028;2022-12-18T08:52:35;0.82;;;0.80;;
63492;SDS011;49638;47.526;10.028;2022-12-18T08:55:35;0.77;;;0.60;;
63492;SDS011;49638;47.526;10.028;2022-12-18T08:58:36;1.08;;;0.73;;
63492;SDS011;49638;47.526;10.028;2022-12-18T09:01:36;1.52;;;0.80;;
63492;SDS011;49638;47.526;10.028;2022-12-18T09:04:36;2.67;;;1.42;;
63492;SDS011;49638;47.526;10.028;2022-12-18T09:07:37;2.22;;;1.65;;
63492;SDS011;49638;47.526;10.028;2022-12-18T09:10:41;1.67;;;1.15;;
63492;SDS011;49638;47.526;10.028;2022-12-18T09:13:45;1.83;;;1.63;;
63492;SDS011;49638;47.526;10.028;2022-12-18T09:16:46;2.50;;;1.85;;
63492;SDS011;49638;47.526;10.028;2022-12-18T09:19:46;1.70;;;1.02;;
63492;SDS011;49638;47.526;10.028;2022-12-18T09:22:46;2.47;;;1.00;;
63492;SDS011;49638;47.526;10.028;2022-12-18T09:25:47;1.95;;;0.50;;
63492;SDS011;49638;47.526;10.028;2022-12-18T09:28:47;2.45;;;0.70;;
63492;SDS011;49638;47.526;10.028;2022-12-18T09:31:48;0.90;;;0.80;;
63492;SDS011;49638;47.526;10.028;2022-12-18T09:34:49;1.30;;;0.90;;
63492;SDS011;49638;47.526;10.028;2022-12-18T09:37:49;3.33;;;1.60;;
63492;SDS011;49638;47.526;10.028;2022-12-18T09:40:51;4.57;;;2.30;;
63492;SDS011;49638;47.526;10.028;2022-12-18T09:43:59;14.25;;;5.25;;
63492;SDS011;49638;47.526;10.028;2022-12-18T09:47:13;9.93;;;5.25;;
63492;SDS011;49638;47.526;10.028;2022-12-18T09:53:26;18.17;;;6.55;;
63492;SDS011;49638;47.526;10.028;2022-12-18T09:56:31;17.33;;;7.00;;
63492;SDS011;49638;47.526;10.028;2022-12-18T09:59:37;16.67;;;10.05;;
63492;SDS011;49638;47.526;10.028;2022-12-18T10:02:39;8.40;;;4.15;;
63492;SDS011;49638;47.526;10.028;2022-12-18T10:05:42;6.38;;;3.22;;
63492;SDS011;49638;47.526;10.028;2022-12-18T10:12:19;5.93;;;2.92;;
63492;SDS011;49638;47.526;10.028;2022-12-18T10:15:30;6.35;;;2.97;;
63492;SDS011;49638;47.526;10.028;2022-12-18T10:22:01;8.15;;;5.18;;
63492;SDS011;49638;47.526;10.028;2022-12-18T10:28:35;5.80;;;3.63;;
63492;SDS011;49638;47.526;10.028;2022-12-18T10:34:39;5.20;;;2.97;;
63492;SDS011;49638;47.526;10.028;2022-12-18T10:37:39;3.97;;;2.17;;
63492;SDS011;49638;47.526;10.028;2022-12-18T10:41:08;4.25;;;2.65;;
63492;SDS011;49638;47.526;10.028;2022-12-18T10:44:25;4.30;;;2.65;;
63492;SDS011;49638;47.526;10.028;2022-12-18T10:47:26;2.85;;;1.60;;
63492;SDS011;49638;47.526;10.028;2022-12-18T10:53:27;2.75;;;1.40;;
63492;SDS011;49638;47.526;10.028;2022-12-18T10:56:30;6.18;;;2.47;;
63492;SDS011;49638;47.526;10.028;2022-12-18T10:59:33;14.48;;;5.30;;
63492;SDS011;49638;47.526;10.028;2022-12-18T11:02:51;7.93;;;3.08;;
63492;SDS011;49638;47.526;10.028;2022-12-18T11:06:01;4.22;;;1.70;;
63492;SDS011;49638;47.526;10.028;2022-12-18T11:09:04;3.40;;;1.40;;
63492;SDS011;49638;47.526;10.028;2022-12-18T11:18:42;4.45;;;1.67;;
63492;SDS011;49638;47.526;10.028;2022-12-18T11:21:43;6.13;;;3.10;;
63492;SDS011;49638;47.526;10.028;2022-12-18T11:24:49;4.07;;;2.67;;
63492;SDS011;49638;47.526;10.028;2022-12-18T11:28:00;5.57;;;3.05;;
63492;SDS011;49638;47.526;10.028;2022-12-18T11:34:26;5.90;;;3.88;;
63492;SDS011;49638;47.526;10.028;2022-12-18T11:37:30;8.60;;;3.83;;
63492;SDS011;49638;47.526;10.028;2022-12-18T11:40:35;6.47;;;3.17;;
63492;SDS011;49638;47.526;10.028;2022-12-18T11:43:38;7.57;;;3.75;;
63492;SDS011;49638;47.526;10.028;2022-12-18T11:46:47;7.05;;;3.67;;
63492;SDS011;49638;47.526;10.028;2022-12-18T11:49:52;12.27;;;3.35;;
63492;SDS011;49638;47.526;10.028;2022-12-18T11:52:56;3.25;;;2.20;;
63492;SDS011;49638;47.526;10.028;2022-12-18T12:00:07;20.30;;;7.72;;
63492;SDS011;49638;47.526;10.028;2022-12-18T12:06:48;13.95;;;5.80;;
63492;SDS011;49638;47.526;10.028;2022-12-18T12:13:11;14.63;;;6.43;;
63492;SDS011;49638;47.526;10.028;2022-12-18T12:22:51;10.90;;;5.47;;
63492;SDS011;49638;47.526;10.028;2022-12-18T12:26:12;11.02;;;5.38;;
63492;SDS011;49638;47.526;10.028;2022-12-18T12:40:19;15.73;;;7.07;;
63492;SDS011;49638;47.526;10.028;2022-12-18T12:43:25;13.77;;;6.57;;
63492;SDS011;49638;47.526;10.028;2022-12-18T12:46:31;10.93;;;5.40;;
63492;SDS011;49638;47.526;10.028;2022-12-18T12:49:35;11.73;;;5.43;;
63492;SDS011;49638;47.526;10.028;2022-12-18T12:52:39;14.57;;;6.05;;
63492;SDS011;49638;47.526;10.028;2022-12-18T12:55:44;14.20;;;6.72;;
63492;SDS011;49638;47.526;10.028;2022-12-18T13:05:54;21.77;;;9.38;;
63492;SDS011;49638;47.526;10.028;2022-12-18T13:09:03;26.98;;;10.02;;
63492;SDS011;49638;47.526;10.028;2022-12-18T13:12:04;22.50;;;8.85;;
63492;SDS011;49638;47.526;10.028;2022-12-18T13:18:34;14.38;;;7.20;;
63492;SDS011;49638;47.526;10.028;2022-12-18T13:21:35;13.65;;;6.85;;
63492;SDS011;49638;47.526;10.028;2022-12-18T13:24:35;10.40;;;5.30;;
63492;SDS011;49638;47.526;10.028;2022-12-18T13:30:54;9.98;;;5.00;;
63492;SDS011;49638;47.526;10.028;2022-12-18T13:43:40;12.10;;;6.30;;
63492;SDS011;49638;47.526;10.028;2022-12-18T13:49:45;17.98;;;9.85;;
63492;SDS011;49638;47.526;10.028;2022-12-18T13:52:46;25.27;;;14.30;;
63492;SDS011;49638;47.526;10.028;2022-12-18T13:55:47;25.70;;;15.63;;
63492;SDS011;49638;47.526;10.028;2022-12-18T14:02:24;11.85;;;6.75;;
63492;SDS011;49638;47.526;10.028;2022-12-18T14:05:27;14.85;;;7.97;;
63492;SDS011;49638;47.526;10.028;2022-12-18T14:08:30;15.70;;;7.50;;
63492;SDS011;49638;47.526;10.028;2022-12-18T14:11:34;31.15;;;15.85;;
63492;SDS011;49638;47.526;10.028;2022-12-18T14:14:34;26.80;;;12.68;;
63492;SDS011;49638;47.526;10.028;2022-12-18T14:17:35;19.35;;;10.10;;
63492;SDS011;49638;47.526;10.028;2022-12-18T14:20:36;13.00;;;7.28;;
63492;SDS011;49638;47.526;10.028;2022-12-18T14:23:41;15.05;;;7.90;;
63492;SDS011;49638;47.526;10.028;2022-12-18T14:26:42;18.65;;;9.38;;
63492;SDS011;49638;47.526;10.028;2022-12-18T14:29:43;17.05;;;9.88;;
63492;SDS011;49638;47.526;10.028;2022-12-18T14:32:44;16.95;;;9.50;;
63492;SDS011;49638;47.526;10.028;2022-12-18T14:35:59;16.10;;;8.77;;
63492;SDS011;49638;47.526;10.028;2022-12-18T14:39:01;13.43;;;8.27;;
63492;SDS011;49638;47.526;10.028;2022-12-18T14:42:01;20.83;;;12.23;;
63492;SDS011;49638;47.526;10.028;2022-12-18T14:51:39;4.60;;;2.75;;
63492;SDS011;49638;47.526;10.028;2022-12-18T14:54:51;8.80;;;5.15;;
63492;SDS011;49638;47.526;10.028;2022-12-18T14:57:52;12.30;;;8.20;;
63492;SDS011;49638;47.526;10.028;2022-12-18T15:00:54;13.45;;;7.50;;
63492;SDS011;49638;47.526;10.028;2022-12-18T15:03:55;16.17;;;8.27;;
63492;SDS011;49638;47.526;10.028;2022-12-18T15:07:04;29.77;;;14.73;;
63492;SDS011;49638;47.526;10.028;2022-12-18T15:10:20;35.20;;;16.10;;
63492;SDS011;49638;47.526;10.028;2022-12-18T15:13:23;30.60;;;12.50;;
63492;SDS011;49638;47.526;10.028;2022-12-18T15:16:24;20.75;;;8.90;;
63492;SDS011;49638;47.526;10.028;2022-12-18T15:19:35;28.52;;;13.90;;
63492;SDS011;49638;47.526;10.028;2022-12-18T15:22:40;28.33;;;13.00;;
63492;SDS011;49638;47.526;10.028;2022-12-18T15:25:41;18.77;;;8.80;;
63492;SDS011;49638;47.526;10.028;2022-12-18T15:32:14;14.25;;;7.28;;
63492;SDS011;49638;47.526;10.028;2022-12-18T15:35:21;17.30;;;7.63;;
63492;SDS011;49638;47.526;10.028;2022-12-18T15:38:22;15.00;;;8.57;;
63492;SDS011;49638;47.526;10.028;2022-12-18T15:41:23;10.52;;;6.13;;
63492;SDS011;49638;47.526;10.028;2022-12-18T15:44:24;12.90;;;6.85;;
63492;SDS011;49638;47.526;10.028;2022-12-18T15:47:25;8.15;;;4.15;;
63492;SDS011;49638;47.526;10.028;2022-12-18T15:50:25;5.63;;;3.10;;
63492;SDS011;49638;47.526;10.028;2022-12-18T15:53:28;6.57;;;3.42;;
63492;SDS011;49638;47.526;10.028;2022-12-18T15:56:31;5.32;;;2.90;;
63492;SDS011;49638;47.526;10.028;2022-12-18T15:59:51;5.13;;;3.63;;
63492;SDS011;49638;47.526;10.028;2022-12-18T16:02:53;1.40;;;1.30;;
63492;SDS011;49638;47.526;10.028;2022-12-18T16:05:53;2.72;;;1.67;;
63492;SDS011;49638;47.526;10.028;2022-12-18T16:08:54;4.05;;;2.90;;
63492;SDS011;49638;47.526;10.028;2022-12-18T16:11:54;7.47;;;2.72;;
63492;SDS011;49638;47.526;10.028;2022-12-18T16:14:54;7.57;;;3.75;;
63492;SDS011;49638;47.526;10.028;2022-12-18T16:17:54;9.18;;;4.78;;
63492;SDS011;49638;47.526;10.028;2022-12-18T16:20:55;10.00;;;5.10;;
63492;SDS011;49638;47.526;10.028;2022-12-18T16:23:55;9.68;;;4.57;;
63492;SDS011;49638;47.526;10.028;2022-12-18T16:26:57;4.85;;;2.90;;
63492;SDS011;49638;47.526;10.028;2022-12-18T16:32:59;4.38;;;1.77;;
63492;SDS011;49638;47.526;10.028;2022-12-18T16:35:59;4.63;;;2.33;;
63492;SDS011;49638;47.526;10.028;2022-12-18T16:39:00;5.25;;;2.97;;
63492;SDS011;49638;47.526;10.028;2022-12-18T16:42:01;5.97;;;3.45;;
63492;SDS011;49638;47.526;10.028;2022-12-18T16:45:04;2.03;;;1.40;;
63492;SDS011;49638;47.526;10.028;2022-12-18T16:48:06;1.63;;;1.10;;
63492;SDS011;49638;47.526;10.028;2022-12-18T16:51:07;1.30;;;1.08;;
63492;SDS011;49638;47.526;10.028;2022-12-18T16:54:07;1.83;;;1.25;;
63492;SDS011;49638;47.526;10.028;2022-12-18T16:57:08;4.30;;;1.70;;
63492;SDS011;49638;47.526;10.028;2022-12-18T17:00:12;2.10;;;1.00;;
63492;SDS011;49638;47.526;10.028;2022-12-18T17:03:12;63.53;;;26.45;;
63492;SDS011;49638;47.526;10.028;2022-12-18T17:06:13;61.10;;;27.40;;
63492;SDS011;49638;47.526;10.028;2022-12-18T17:09:14;19.40;;;11.13;;
63492;SDS011;49638;47.526;10.028;2022-12-18T17:12:19;8.07;;;4.85;;
63492;SDS011;49638;47.526;10.028;2022-12-18T17:15:20;5.47;;;2.65;;
63492;SDS011;49638;47.526;10.028;2022-12-18T17:18:20;3.72;;;1.83;;
63492;SDS011;49638;47.526;10.028;2022-12-18T17:21:20;2.05;;;1.50;;
63492;SDS011;49638;47.526;10.028;2022-12-18T17:24:21;2.70;;;1.90;;
63492;SDS011;49638;47.526;10.028;2022-12-18T17:27:22;2.90;;;2.20;;
63492;SDS011;49638;47.526;10.028;2022-12-18T17:30:22;5.00;;;1.77;;
63492;SDS011;49638;47.526;10.028;2022-12-18T17:33:23;1.88;;;1.40;;
63492;SDS011;49638;47.526;10.028;2022-12-18T17:36:24;3.90;;;2.63;;
63492;SDS011;49638;47.526;10.028;2022-12-18T17:39:27;6.35;;;4.93;;
63492;SDS011;49638;47.526;10.028;2022-12-18T17:42:29;7.22;;;5.60;;
63492;SDS011;49638;47.526;10.028;2022-12-18T17:45:29;4.38;;;3.13;;
63492;SDS011;49638;47.526;10.028;2022-12-18T17:48:30;5.13;;;2.08;;
63492;SDS011;49638;47.526;10.028;2022-12-18T17:51:32;3.45;;;1.52;;
63492;SDS011;49638;47.526;10.028;2022-12-18T17:54:33;3.53;;;1.25;;
63492;SDS011;49638;47.526;10.028;2022-12-18T17:57:34;6.70;;;2.95;;
63492;SDS011;49638;47.526;10.028;2022-12-18T18:00:37;4.15;;;2.30;;
63492;SDS011;49638;47.526;10.028;2022-12-18T18:03:38;2.53;;;1.20;;
63492;SDS011;49638;47.526;10.028;2022-12-18T18:06:38;2.03;;;1.48;;
63492;SDS011;49638;47.526;10.028;2022-12-18T18:09:38;1.70;;;1.27;;
63492;SDS011;49638;47.526;10.028;2022-12-18T18:12:39;2.95;;;1.40;;
63492;SDS011;49638;47.526;10.028;2022-12-18T18:15:58;6.50;;;3.13;;
63492;SDS011;49638;47.526;10.028;2022-12-18T18:18:59;8.07;;;4.22;;
63492;SDS011;49638;47.526;10.028;2022-12-18T18:22:00;5.35;;;2.67;;
63492;SDS011;49638;47.526;10.028;2022-12-18T18:25:01;2.35;;;1.45;;
63492;SDS011;49638;47.526;10.028;2022-12-18T18:28:02;2.13;;;1.13;;
63492;SDS011;49638;47.526;10.028;2022-12-18T18:31:03;2.67;;;1.30;;
63492;SDS011;49638;47.526;10.028;2022-12-18T18:34:04;2.53;;;1.25;;
63492;SDS011;49638;47.526;10.028;2022-12-18T18:37:04;3.65;;;1.40;;
63492;SDS011;49638;47.526;10.028;2022-12-18T18:40:05;10.40;;;4.18;;
63492;SDS011;49638;47.526;10.028;2022-12-18T18:43:05;38.92;;;12.35;;
63492;SDS011;49638;47.526;10.028;2022-12-18T18:46:06;122.80;;;33.78;;
63492;SDS011;49638;47.526;10.028;2022-12-18T18:49:06;111.13;;;32.42;;
63492;SDS011;49638;47.526;10.028;2022-12-18T18:52:06;29.27;;;10.55;;
63492;SDS011;49638;47.526;10.028;2022-12-18T18:55:07;10.57;;;4.00;;
63492;SDS011;49638;47.526;10.028;2022-12-18T18:58:07;9.90;;;4.25;;
63492;SDS011;49638;47.526;10.028;2022-12-18T19:01:18;8.57;;;4.32;;
63492;SDS011;49638;47.526;10.028;2022-12-18T19:04:19;4.95;;;2.90;;
63492;SDS011;49638;47.526;10.028;2022-12-18T19:07:20;3.88;;;2.78;;
63492;SDS011;49638;47.526;10.028;2022-12-18T19:10:20;2.58;;;1.90;;
63492;SDS011;49638;47.526;10.028;2022-12-18T19:13:20;2.72;;;1.77;;
63492;SDS011;49638;47.526;10.028;2022-12-18T19:16:23;8.15;;;4.38;;
63492;SDS011;49638;47.526;10.028;2022-12-18T19:19:24;4.85;;;2.80;;
63492;SDS011;49638;47.526;10.028;2022-12-18T19:22:26;5.03;;;2.30;;
63492;SDS011;49638;47.526;10.028;2022-12-18T19:25:26;4.05;;;2.03;;
63492;SDS011;49638;47.526;10.028;2022-12-18T19:28:28;4.07;;;2.35;;
63492;SDS011;49638;47.526;10.028;2022-12-18T19:31:28;3.65;;;2.25;;
63492;SDS011;49638;47.526;10.028;2022-12-18T19:34:29;3.45;;;2.08;;
63492;SDS011;49638;47.526;10.028;2022-12-18T19:37:29;80.18;;;31.83;;
63492;SDS011;49638;47.526;10.028;2022-12-18T19:40:29;56.38;;;22.63;;
63492;SDS011;49638;47.526;10.028;2022-12-18T19:43:30;28.55;;;12.82;;
63492;SDS011;49638;47.526;10.028;2022-12-18T19:46:30;10.02;;;4.50;;
63492;SDS011;49638;47.526;10.028;2022-12-18T19:49:30;7.47;;;3.90;;
63492;SDS011;49638;47.526;10.028;2022-12-18T19:52:31;3.55;;;2.92;;
63492;SDS011;49638;47.526;10.028;2022-12-18T19:55:31;8.02;;;6.45;;
63492;SDS011;49638;47.526;10.028;2022-12-18T19:58:32;6.72;;;5.30;;
63492;SDS011;49638;47.526;10.028;2022-12-18T20:01:33;4.35;;;3.55;;
63492;SDS011;49638;47.526;10.028;2022-12-18T20:04:33;4.35;;;2.30;;
63492;SDS011;49638;47.526;10.028;2022-12-18T20:07:34;5.57;;;2.88;;
63492;SDS011;49638;47.526;10.028;2022-12-18T20:10:34;4.38;;;2.50;;